createdAt,value
2022-10-24T00:02:24.393Z,15.27
2022-10-24T00:04:52.548Z,15.68
2022-10-24T00:07:23.288Z,16.17
2022-10-24T00:09:51.429Z,14.10
2022-10-24T00:14:51.959Z,14.00
2022-10-24T00:17:20.239Z,14.98
2022-10-24T00:19:48.698Z,13.45
2022-10-24T00:22:17.707Z,14.77
2022-10-24T00:24:48.602Z,15.57
2022-10-24T00:27:18.211Z,16.67
2022-10-24T00:29:49.356Z,16.40
2022-10-24T00:32:18.489Z,15.05
2022-10-24T00:34:46.854Z,16.90
2022-10-24T00:37:16.030Z,15.82
2022-10-24T00:39:45.155Z,19.48
2022-10-24T00:42:14.298Z,17.73
2022-10-24T00:44:44.336Z,16.02
2022-10-24T00:47:17.907Z,15.88
2022-10-24T00:49:50.800Z,16.33
2022-10-24T00:52:21.871Z,18.00
2022-10-24T00:54:52.173Z,18.60
2022-10-24T00:57:23.857Z,16.38
2022-10-24T00:59:54.927Z,16.65
2022-10-24T01:02:25.744Z,15.95
2022-10-24T01:04:55.451Z,16.83
2022-10-24T01:07:30.277Z,17.45
2022-10-24T01:10:16.057Z,17.92
2022-10-24T01:12:48.200Z,17.73
2022-10-24T01:15:19.336Z,18.27
2022-10-24T01:17:52.401Z,17.17
2022-10-24T01:20:35.244Z,18.45
2022-10-24T01:23:18.219Z,17.35
2022-10-24T01:25:53.288Z,15.90
2022-10-24T01:28:24.229Z,18.90
2022-10-24T01:30:56.218Z,17.00
2022-10-24T01:33:28.615Z,16.88
2022-10-24T01:35:59.729Z,17.27
2022-10-24T01:38:30.063Z,17.63
2022-10-24T01:40:59.143Z,18.75
2022-10-24T01:45:59.517Z,17.40
2022-10-24T01:48:29.443Z,18.45
2022-10-24T01:50:58.639Z,16.98
2022-10-24T01:55:58.411Z,18.33
2022-10-24T01:58:27.469Z,18.10
2022-10-24T02:00:59.270Z,18.48
2022-10-24T02:03:33.618Z,16.75
2022-10-24T02:06:07.525Z,16.55
2022-10-24T02:08:40.146Z,16.42
2022-10-24T02:11:09.123Z,17.33
2022-10-24T02:13:40.942Z,18.15
2022-10-24T02:16:10.909Z,18.63
2022-10-24T02:18:41.351Z,18.92
2022-10-24T02:21:14.777Z,19.85
2022-10-24T02:23:46.922Z,19.85
2022-10-24T02:26:22.131Z,20.25
2022-10-24T02:28:54.503Z,20.27
2022-10-24T02:31:34.077Z,20.25
2022-10-24T02:34:06.989Z,19.42
2022-10-24T02:36:36.626Z,17.80
2022-10-24T02:39:07.343Z,19.88
2022-10-24T02:41:37.569Z,20.20
2022-10-24T02:44:07.646Z,19.77
2022-10-24T02:46:37.541Z,19.20
2022-10-24T02:49:08.574Z,19.63
2022-10-24T02:51:40.079Z,19.38
2022-10-24T02:54:08.780Z,20.88
2022-10-24T02:56:39.248Z,20.80
2022-10-24T03:01:38.464Z,21.35
2022-10-24T03:09:08.032Z,20.15
2022-10-24T03:11:37.194Z,21.50
2022-10-24T03:14:06.735Z,21.27
2022-10-24T03:16:35.595Z,20.17
2022-10-24T03:19:05.476Z,22.85
2022-10-24T03:21:35.163Z,23.23
2022-10-24T03:24:04.536Z,21.60
2022-10-24T03:26:35.304Z,23.83
2022-10-24T03:29:04.919Z,25.38
2022-10-24T03:31:33.529Z,22.80
2022-10-24T03:34:02.309Z,23.35
2022-10-24T03:36:31.379Z,25.08
2022-10-24T03:39:00.807Z,23.50
2022-10-24T03:41:31.400Z,22.95
2022-10-24T03:44:02.996Z,23.65
2022-10-24T03:46:31.947Z,22.27
2022-10-24T03:51:34.819Z,23.80
2022-10-24T03:54:03.529Z,24.40
2022-10-24T03:56:32.269Z,23.23
2022-10-24T03:59:02.924Z,23.45
2022-10-24T04:01:31.291Z,22.95
2022-10-24T04:03:59.762Z,23.08
2022-10-24T04:06:29.445Z,22.80
2022-10-24T04:09:00.118Z,21.92
2022-10-24T04:11:28.345Z,23.27
2022-10-24T04:13:57.031Z,23.63
2022-10-24T04:16:27.082Z,23.73
2022-10-24T04:18:55.788Z,22.65
2022-10-24T04:21:24.205Z,24.48
2022-10-24T04:23:52.796Z,23.10
2022-10-24T04:26:21.206Z,23.92
2022-10-24T04:28:50.133Z,22.35
2022-10-24T04:31:22.502Z,24.10
2022-10-24T04:33:54.858Z,23.73
2022-10-24T04:36:23.044Z,23.92
2022-10-24T04:38:52.652Z,23.88
2022-10-24T04:41:22.808Z,24.55
2022-10-24T04:43:53.610Z,24.20
2022-10-24T04:46:22.414Z,24.70
2022-10-24T04:48:51.668Z,24.95
2022-10-24T04:51:22.673Z,25.25
2022-10-24T04:53:51.660Z,24.02
2022-10-24T04:56:21.381Z,25.05
2022-10-24T04:58:49.801Z,24.70
2022-10-24T05:01:19.762Z,24.30
2022-10-24T05:03:48.673Z,22.98
2022-10-24T05:06:17.185Z,24.25
2022-10-24T05:08:47.737Z,23.83
2022-10-24T05:11:16.447Z,24.13
2022-10-24T05:13:45.714Z,25.02
2022-10-24T05:16:14.643Z,25.20
2022-10-24T05:18:43.845Z,25.20
2022-10-24T05:21:12.249Z,24.17
2022-10-24T05:23:40.659Z,26.17
2022-10-24T05:26:11.745Z,25.65
2022-10-24T05:28:41.452Z,27.10
2022-10-24T05:31:10.269Z,26.05
2022-10-24T05:33:40.281Z,23.95
2022-10-24T05:36:09.233Z,26.25
2022-10-24T05:38:39.179Z,26.58
2022-10-24T05:41:09.138Z,26.42
2022-10-24T05:43:40.717Z,27.08
2022-10-24T05:46:10.444Z,26.40
2022-10-24T05:48:39.471Z,27.25
2022-10-24T05:51:08.250Z,25.38
2022-10-24T05:53:39.627Z,25.83
2022-10-24T05:56:10.656Z,25.13
2022-10-24T05:58:40.720Z,26.73
2022-10-24T06:01:10.314Z,25.95
2022-10-24T06:03:39.860Z,26.25
2022-10-24T06:06:09.496Z,24.48
2022-10-24T06:08:38.133Z,26.20
2022-10-24T06:11:09.763Z,26.15
2022-10-24T06:13:39.897Z,27.63
2022-10-24T06:16:11.230Z,25.85
2022-10-24T06:18:41.518Z,25.33
2022-10-24T06:21:10.683Z,25.00
2022-10-24T06:23:39.629Z,27.52
2022-10-24T06:26:08.964Z,26.05
2022-10-24T06:28:38.212Z,25.35
2022-10-24T06:31:09.901Z,25.50
2022-10-24T06:33:40.865Z,25.73
2022-10-24T06:36:10.928Z,26.98
2022-10-24T06:38:39.983Z,25.98
2022-10-24T06:41:09.284Z,25.63
2022-10-24T06:43:39.028Z,27.15
2022-10-24T06:51:08.226Z,25.33
2022-10-24T06:53:37.153Z,25.65
2022-10-24T06:56:06.574Z,26.85
2022-10-24T06:58:35.583Z,27.10
2022-10-24T07:01:08.775Z,27.73
2022-10-24T07:03:37.458Z,27.58
2022-10-24T07:06:11.423Z,51.25
2022-10-24T07:08:39.881Z,41.33
2022-10-24T07:11:08.162Z,28.85
2022-10-24T07:13:37.228Z,27.77
2022-10-24T07:16:05.853Z,31.65
2022-10-24T07:18:34.380Z,27.92
2022-10-24T07:21:03.301Z,28.45
2022-10-24T07:23:33.848Z,27.20
2022-10-24T07:26:03.013Z,28.83
2022-10-24T07:28:31.469Z,25.92
2022-10-24T07:30:59.752Z,26.73
2022-10-24T07:33:30.315Z,26.95
2022-10-24T07:35:58.501Z,25.63
2022-10-24T07:38:27.552Z,24.17
2022-10-24T07:40:57.369Z,25.13
2022-10-24T07:43:25.748Z,26.30
2022-10-24T07:45:53.772Z,26.23
2022-10-24T07:48:22.190Z,26.48
2022-10-24T07:50:50.974Z,27.40
2022-10-24T07:53:19.359Z,26.70
2022-10-24T07:55:47.468Z,27.05
2022-10-24T07:58:17.142Z,27.90
2022-10-24T08:03:14.609Z,26.50
2022-10-24T08:05:42.940Z,87.95
2022-10-24T08:08:30.658Z,27.97
2022-10-24T08:13:29.326Z,25.95
2022-10-24T08:15:57.814Z,52.78
2022-10-24T08:18:30.128Z,35.72
2022-10-24T08:21:00.450Z,25.45
2022-10-24T08:23:29.406Z,25.45
2022-10-24T08:25:58.570Z,26.05
2022-10-24T08:28:27.195Z,25.42
2022-10-24T08:31:02.064Z,25.20
2022-10-24T08:33:32.097Z,26.10
2022-10-24T08:36:02.032Z,26.13
2022-10-24T08:38:31.867Z,25.45
2022-10-24T08:43:30.610Z,26.95
2022-10-24T08:46:09.008Z,25.90
2022-10-24T08:48:43.397Z,25.55
2022-10-24T08:51:14.558Z,24.95
2022-10-24T08:53:42.829Z,25.75
2022-10-24T08:56:13.016Z,24.98
2022-10-24T08:58:43.342Z,26.63
2022-10-24T09:01:18.196Z,24.63
2022-10-24T09:03:56.673Z,49.28
2022-10-24T09:06:26.526Z,36.80
2022-10-24T09:08:56.344Z,25.95
2022-10-24T09:11:27.608Z,24.92
2022-10-24T09:13:56.416Z,25.42
2022-10-24T09:16:27.661Z,25.63
2022-10-24T09:19:00.249Z,25.75
2022-10-24T09:21:29.160Z,25.50
2022-10-24T09:23:57.522Z,25.55
2022-10-24T09:26:27.850Z,24.65
2022-10-24T09:28:57.258Z,25.70
2022-10-24T09:31:28.775Z,24.80
2022-10-24T09:34:00.482Z,24.70
2022-10-24T09:36:30.638Z,23.52
2022-10-24T09:39:07.510Z,22.50
2022-10-24T09:41:35.632Z,23.23
2022-10-24T09:44:05.597Z,23.17
2022-10-24T09:46:37.321Z,20.08
2022-10-24T09:49:17.166Z,19.77
2022-10-24T09:51:48.091Z,21.40
2022-10-24T09:54:27.238Z,21.25
2022-10-24T09:56:56.860Z,20.77
2022-10-24T09:59:33.651Z,22.67
2022-10-24T10:02:15.633Z,22.30
2022-10-24T10:04:44.370Z,20.55
2022-10-24T10:07:13.095Z,18.95
2022-10-24T10:09:50.573Z,20.33
2022-10-24T10:12:29.556Z,21.15
2022-10-24T10:14:57.832Z,21.80
2022-10-24T10:17:28.466Z,21.27
2022-10-24T10:19:57.145Z,21.75
2022-10-24T10:22:26.708Z,20.98
2022-10-24T10:24:55.474Z,18.80
2022-10-24T10:27:32.220Z,20.65
2022-10-24T10:30:11.725Z,22.83
2022-10-24T10:32:45.661Z,22.58
2022-10-24T10:35:17.170Z,23.05
2022-10-24T10:37:48.010Z,22.25
2022-10-24T10:40:21.242Z,22.73
2022-10-24T10:42:55.736Z,23.10
2022-10-24T10:45:29.211Z,22.65
2022-10-24T10:48:02.818Z,25.40
2022-10-24T10:50:36.417Z,25.27
2022-10-24T10:53:09.933Z,23.02
2022-10-24T10:55:40.676Z,24.52
2022-10-24T10:58:17.591Z,24.77
2022-10-24T11:00:49.633Z,27.02
2022-10-24T11:03:32.649Z,24.80
2022-10-24T11:06:08.302Z,26.95
2022-10-24T11:08:43.089Z,25.85
2022-10-24T11:11:14.548Z,28.05
2022-10-24T11:13:44.593Z,25.33
2022-10-24T11:16:14.991Z,26.80
2022-10-24T11:18:45.531Z,24.40
2022-10-24T11:21:16.597Z,26.05
2022-10-24T11:23:48.099Z,24.00
2022-10-24T11:26:20.167Z,24.40
2022-10-24T11:28:53.583Z,24.42
2022-10-24T11:31:23.668Z,23.70
2022-10-24T11:33:56.721Z,23.33
2022-10-24T11:36:28.939Z,22.38
2022-10-24T11:38:58.640Z,23.52
2022-10-24T11:41:31.012Z,22.67
2022-10-24T11:44:02.410Z,21.95
2022-10-24T11:46:35.216Z,21.05
2022-10-24T11:49:08.078Z,19.13
2022-10-24T11:51:40.347Z,22.40
2022-10-24T11:54:12.995Z,23.05
2022-10-24T11:56:44.941Z,23.73
2022-10-24T11:59:14.722Z,22.70
2022-10-24T12:01:56.946Z,23.70
2022-10-24T12:04:42.840Z,21.60
2022-10-24T12:07:31.308Z,24.80
2022-10-24T12:10:10.566Z,23.75
2022-10-24T12:12:49.145Z,23.23
2022-10-24T12:15:23.309Z,20.70
2022-10-24T12:17:57.643Z,24.15
2022-10-24T12:20:26.638Z,23.40
2022-10-24T12:22:57.311Z,23.15
2022-10-24T12:25:30.200Z,24.73
2022-10-24T12:27:59.477Z,25.60
2022-10-24T12:30:29.038Z,26.98
2022-10-24T12:32:59.230Z,28.38
2022-10-24T12:35:35.908Z,26.92
2022-10-24T12:38:15.910Z,28.60
2022-10-24T12:40:55.913Z,28.52
2022-10-24T12:43:31.685Z,31.55
2022-10-24T12:46:01.558Z,31.02
2022-10-24T12:48:33.823Z,28.17
2022-10-24T12:51:05.975Z,29.60
2022-10-24T12:53:37.853Z,30.15
2022-10-24T12:56:14.206Z,28.30
2022-10-24T12:58:43.877Z,26.88
2022-10-24T13:01:13.500Z,27.58
2022-10-24T13:03:55.671Z,27.13
2022-10-24T13:06:26.813Z,24.73
2022-10-24T13:09:10.378Z,26.75
2022-10-24T13:11:54.135Z,25.40
2022-10-24T13:14:27.450Z,26.77
2022-10-24T13:17:00.453Z,26.73
2022-10-24T13:19:29.230Z,24.27
2022-10-24T13:21:57.948Z,24.25
2022-10-24T13:24:29.881Z,23.08
2022-10-24T13:27:16.905Z,23.48
2022-10-24T13:30:03.173Z,18.38
2022-10-24T13:32:32.477Z,20.95
2022-10-24T13:35:02.938Z,20.23
2022-10-24T13:37:34.615Z,20.23
2022-10-24T13:40:09.736Z,18.02
2022-10-24T13:42:41.882Z,17.48
2022-10-24T13:45:23.535Z,17.20
2022-10-24T13:47:53.131Z,19.48
2022-10-24T13:50:23.610Z,19.15
2022-10-24T13:52:55.054Z,17.63
2022-10-24T13:55:27.460Z,17.67
2022-10-24T13:57:57.022Z,17.85
2022-10-24T14:00:28.204Z,17.10
2022-10-24T14:02:58.121Z,18.63
2022-10-24T14:05:31.240Z,18.40
2022-10-24T14:08:00.915Z,19.70
2022-10-24T14:10:29.755Z,17.67
2022-10-24T14:12:58.493Z,19.23
2022-10-24T14:15:29.606Z,21.50
2022-10-24T14:17:59.086Z,20.98
2022-10-24T14:20:28.416Z,21.35
2022-10-24T14:22:56.670Z,19.85
2022-10-24T14:25:26.645Z,20.87
2022-10-24T14:27:55.981Z,21.05
2022-10-24T14:30:26.969Z,20.65
2022-10-24T14:33:19.260Z,20.80
2022-10-24T14:35:49.005Z,20.65
2022-10-24T14:38:18.670Z,19.80
2022-10-24T14:43:16.682Z,20.10
2022-10-24T14:46:02.540Z,19.80
2022-10-24T14:48:31.984Z,20.58
2022-10-24T14:51:03.765Z,19.75
2022-10-24T14:53:32.335Z,18.98
2022-10-24T14:56:01.534Z,18.15
2022-10-24T14:58:30.911Z,18.90
2022-10-24T15:01:00.862Z,17.27
2022-10-24T15:03:29.954Z,17.42
2022-10-24T15:06:01.069Z,18.27
2022-10-24T15:08:36.762Z,16.70
2022-10-24T15:11:16.453Z,16.58
2022-10-24T15:14:00.000Z,17.00
2022-10-24T15:16:37.625Z,16.02
2022-10-24T15:19:07.318Z,17.65
2022-10-24T15:21:39.300Z,17.50
2022-10-24T15:24:08.492Z,16.85
2022-10-24T15:26:39.390Z,16.80
2022-10-24T15:29:09.470Z,17.55
2022-10-24T15:31:39.488Z,17.17
2022-10-24T15:34:09.120Z,17.98
2022-10-24T15:36:41.775Z,17.27
2022-10-24T15:39:14.003Z,15.95
2022-10-24T15:41:43.231Z,18.02
2022-10-24T15:44:15.972Z,17.65
2022-10-24T15:46:44.803Z,17.73
2022-10-24T15:49:13.513Z,17.88
2022-10-24T15:51:48.949Z,18.15
2022-10-24T15:54:19.727Z,18.23
2022-10-24T15:59:16.142Z,20.13
2022-10-24T16:01:47.679Z,20.30
2022-10-24T16:04:16.721Z,19.10
2022-10-24T16:06:47.354Z,19.23
2022-10-24T16:09:17.087Z,20.08
2022-10-24T16:11:46.081Z,19.00
2022-10-24T16:14:15.912Z,19.92
2022-10-24T16:16:44.277Z,18.75
2022-10-24T16:19:12.374Z,20.80
2022-10-24T16:21:41.544Z,19.88
2022-10-24T16:24:12.664Z,20.25
2022-10-24T16:26:41.261Z,20.88
2022-10-24T16:29:09.449Z,18.63
2022-10-24T16:31:37.890Z,19.20
2022-10-24T16:34:07.430Z,19.88
2022-10-24T16:36:36.235Z,20.80
2022-10-24T16:39:05.312Z,19.95
2022-10-24T16:41:36.462Z,17.38
2022-10-24T16:44:05.128Z,20.15
2022-10-24T16:46:33.512Z,22.00
2022-10-24T16:49:01.770Z,21.42
2022-10-24T16:51:32.605Z,21.47
2022-10-24T16:54:01.415Z,21.67
2022-10-24T16:59:01.489Z,21.92
2022-10-24T17:01:30.155Z,21.23
2022-10-24T17:03:58.269Z,21.20
2022-10-24T17:06:26.590Z,22.33
2022-10-24T17:08:54.748Z,21.67
2022-10-24T17:11:44.298Z,22.40
2022-10-24T17:14:14.484Z,21.67
2022-10-24T17:16:43.804Z,21.23
2022-10-24T17:19:16.575Z,23.03
2022-10-24T17:21:47.635Z,23.10
2022-10-24T17:24:16.458Z,23.58
2022-10-24T17:26:45.507Z,23.33
2022-10-24T17:29:16.518Z,20.50
2022-10-24T17:31:44.877Z,22.08
2022-10-24T17:34:13.019Z,25.52
2022-10-24T17:36:41.677Z,23.90
2022-10-24T17:39:11.398Z,25.83
2022-10-24T17:41:41.026Z,28.88
2022-10-24T17:44:14.100Z,28.00
2022-10-24T17:46:44.215Z,25.70
2022-10-24T17:49:16.557Z,26.92
2022-10-24T17:51:48.207Z,27.48
2022-10-24T17:54:16.655Z,28.70
2022-10-24T17:56:45.050Z,28.95
2022-10-24T17:59:13.289Z,27.63
2022-10-24T18:01:42.695Z,30.03
2022-10-24T18:04:12.454Z,26.35
2022-10-24T18:06:43.422Z,29.42
2022-10-24T18:09:12.215Z,28.95
2022-10-24T18:11:40.699Z,27.83
2022-10-24T18:14:09.110Z,29.00
2022-10-24T18:16:39.653Z,28.55
2022-10-24T18:19:07.818Z,29.95
2022-10-24T18:21:37.720Z,29.75
2022-10-24T18:24:07.405Z,30.48
2022-10-24T18:26:35.835Z,29.85
2022-10-24T18:29:04.101Z,28.48
2022-10-24T18:31:34.232Z,28.67
2022-10-24T18:34:06.060Z,28.10
2022-10-24T18:36:38.181Z,28.75
2022-10-24T18:39:06.611Z,28.10
2022-10-24T18:41:46.717Z,33.22
2022-10-24T18:44:22.262Z,32.97
2022-10-24T18:46:51.517Z,31.50
2022-10-24T18:49:20.042Z,38.28
2022-10-24T18:51:54.136Z,34.13
2022-10-24T18:54:22.621Z,32.65
2022-10-24T18:56:51.204Z,34.78
2022-10-24T18:59:20.471Z,31.30
2022-10-24T19:01:53.318Z,33.92
2022-10-24T19:04:22.929Z,32.25
2022-10-24T19:06:54.260Z,28.23
2022-10-24T19:09:26.249Z,28.17
2022-10-24T19:11:55.468Z,26.83
2022-10-24T19:14:25.284Z,27.80
2022-10-24T19:16:54.092Z,27.08
2022-10-24T19:19:26.384Z,28.27
2022-10-24T19:21:56.130Z,29.45
2022-10-24T19:24:24.398Z,25.15
2022-10-24T19:26:52.630Z,24.90
2022-10-24T19:29:20.693Z,27.35
2022-10-24T19:31:49.013Z,27.17
2022-10-24T19:34:17.301Z,29.65
2022-10-24T19:36:45.612Z,29.27
2022-10-24T19:39:15.127Z,28.52
2022-10-24T19:41:43.558Z,29.23
2022-10-24T19:44:11.830Z,27.83
2022-10-24T19:46:40.040Z,30.10
2022-10-24T19:49:08.371Z,27.63
2022-10-24T19:51:36.969Z,30.83
2022-10-24T19:54:05.443Z,26.83
2022-10-24T19:56:35.556Z,28.98
2022-10-24T19:59:03.688Z,28.23
2022-10-24T20:01:32.298Z,43.45
2022-10-24T20:04:01.780Z,35.13
2022-10-24T20:09:22.029Z,29.30
2022-10-24T20:11:51.811Z,30.02
2022-10-24T20:14:19.976Z,29.65
2022-10-24T20:16:48.908Z,28.88
2022-10-24T20:19:17.077Z,30.30
2022-10-24T20:21:45.435Z,29.30
2022-10-24T20:24:13.600Z,25.95
2022-10-24T20:26:41.897Z,28.80
2022-10-24T20:29:14.947Z,25.65
2022-10-24T20:31:45.096Z,25.58
2022-10-24T20:34:13.437Z,26.17
2022-10-24T20:36:44.454Z,24.63
2022-10-24T20:39:13.620Z,23.55
2022-10-24T20:44:12.557Z,22.63
2022-10-24T20:46:40.805Z,23.40
2022-10-24T20:49:08.853Z,24.00
2022-10-24T20:51:37.637Z,23.65
2022-10-24T20:54:08.727Z,23.98
2022-10-24T20:56:41.973Z,25.05
2022-10-24T20:59:13.936Z,25.20
2022-10-24T21:01:42.430Z,25.17
2022-10-24T21:04:10.590Z,27.08
2022-10-24T21:06:39.000Z,27.38
2022-10-24T21:09:08.652Z,26.30
2022-10-24T21:11:38.671Z,29.40
2022-10-24T21:14:08.485Z,28.38
2022-10-24T21:16:38.409Z,29.25
2022-10-24T21:19:06.618Z,28.90
2022-10-24T21:21:34.874Z,27.55
2022-10-24T21:24:05.944Z,25.55
2022-10-24T21:26:38.490Z,24.63
2022-10-24T21:29:09.151Z,25.95
2022-10-24T21:31:51.440Z,26.63
2022-10-24T21:34:22.583Z,28.33
2022-10-24T21:36:51.186Z,26.33
2022-10-24T21:39:19.493Z,25.37
2022-10-24T21:41:47.866Z,26.00
2022-10-24T21:44:16.479Z,26.85
2022-10-24T21:46:44.695Z,23.20
2022-10-24T21:49:14.204Z,24.80
2022-10-24T21:51:43.985Z,24.98
2022-10-24T21:54:16.088Z,24.90
2022-10-24T21:56:44.495Z,21.25
2022-10-24T21:59:13.316Z,23.05
2022-10-24T22:01:41.781Z,20.85
2022-10-24T22:04:10.348Z,21.17
2022-10-24T22:06:40.484Z,20.30
2022-10-24T22:09:10.000Z,20.48
2022-10-24T22:11:38.331Z,19.10
2022-10-24T22:14:06.961Z,20.02
2022-10-24T22:16:35.331Z,19.02
2022-10-24T22:19:04.253Z,18.58
2022-10-24T22:21:33.744Z,18.42
2022-10-24T22:24:04.722Z,17.83
2022-10-24T22:26:32.926Z,17.42
2022-10-24T22:29:00.954Z,16.98
2022-10-24T22:31:30.158Z,15.75
2022-10-24T22:33:59.023Z,16.23
2022-10-24T22:36:39.748Z,15.15
2022-10-24T22:39:13.965Z,15.68
2022-10-24T22:41:42.631Z,14.30
2022-10-24T22:44:11.975Z,15.60
2022-10-24T22:46:56.387Z,13.98
2022-10-24T22:49:26.810Z,14.40
2022-10-24T22:51:56.336Z,14.65
2022-10-24T22:54:26.271Z,13.93
2022-10-24T22:56:54.909Z,14.55
2022-10-24T22:59:23.220Z,15.25
2022-10-24T23:01:56.949Z,14.15
2022-10-24T23:04:29.416Z,13.13
2022-10-24T23:06:59.465Z,13.63
2022-10-24T23:09:29.090Z,13.23
2022-10-24T23:11:57.721Z,13.88
2022-10-24T23:14:26.077Z,14.15
2022-10-24T23:16:58.037Z,12.95
2022-10-24T23:19:27.216Z,12.88
2022-10-24T23:21:57.397Z,11.82
2022-10-24T23:24:25.753Z,12.48
2022-10-24T23:27:04.112Z,11.67
2022-10-24T23:29:33.723Z,11.60
2022-10-24T23:32:02.592Z,10.60
2022-10-24T23:34:30.929Z,10.65
2022-10-24T23:37:01.031Z,11.48
2022-10-24T23:39:31.625Z,10.88
2022-10-24T23:42:01.641Z,10.52
2022-10-24T23:44:30.010Z,10.80
2022-10-24T23:47:00.709Z,12.23
2022-10-24T23:49:32.208Z,11.45
2022-10-24T23:52:04.196Z,11.48
2022-10-24T23:54:33.376Z,10.95
2022-10-24T23:59:31.255Z,11.13
